Surgut, Russia
Current Conditions -  °F | °C
As of 4:00 AM on Friday 28 Nov 2014 (Local Time) from USRR Reporting Station
Clear Clear  
Wind Chill: -44°   Ceiling: Unl
Heat Index: -24°   Visibility: 4mi
Dew Point: -29°   Wind: 9mph
Humidity: 76%   Direction: 320°NW
Pressure: 30.45"   Gusts: NA
Location:  61.25°N, 73.42°E
Report Text: USRR 272300Z 32004MPS 7000 SKC M31/M34 Q1031 NOSIG RMK QFE768 25////60
Loading
Personal Weather Stations






























Interactive Weather Map New forecast layout! Learn more

10-Day Weather Forecast

Advertisements
Track Severe Weather on mobile